sensor_id;sensor_type;location;lat;lon;timestamp;P1;durP1;ratioP1;P2;durP2;ratioP2
3627;SDS011;1830;49.000;12.074;2022-10-15T00:02:13;14.70;;;4.93;;
3627;SDS011;1830;49.000;12.074;2022-10-15T00:04:40;10.10;;;5.33;;
3627;SDS011;1830;49.000;12.074;2022-10-15T00:07:06;12.30;;;4.57;;
3627;SDS011;1830;49.000;12.074;2022-10-15T00:09:35;9.40;;;4.87;;
3627;SDS011;1830;49.000;12.074;2022-10-15T00:12:01;7.83;;;4.70;;
3627;SDS011;1830;49.000;12.074;2022-10-15T00:14:28;9.10;;;4.73;;
3627;SDS011;1830;49.000;12.074;2022-10-15T00:16:55;8.00;;;5.23;;
3627;SDS011;1830;49.000;12.074;2022-10-15T00:19:22;11.07;;;5.77;;
3627;SDS011;1830;49.000;12.074;2022-10-15T00:21:55;16.83;;;5.03;;
3627;SDS011;1830;49.000;12.074;2022-10-15T00:24:22;13.30;;;5.70;;
3627;SDS011;1830;49.000;12.074;2022-10-15T00:26:51;11.30;;;6.50;;
3627;SDS011;1830;49.000;12.074;2022-10-15T00:29:17;12.27;;;5.93;;
3627;SDS011;1830;49.000;12.074;2022-10-15T00:31:44;14.07;;;7.77;;
3627;SDS011;1830;49.000;12.074;2022-10-15T00:34:11;13.67;;;7.20;;
3627;SDS011;1830;49.000;12.074;2022-10-15T00:36:38;12.37;;;7.47;;
3627;SDS011;1830;49.000;12.074;2022-10-15T00:39:05;9.20;;;6.30;;
3627;SDS011;1830;49.000;12.074;2022-10-15T00:41:33;16.20;;;6.80;;
3627;SDS011;1830;49.000;12.074;2022-10-15T00:47:05;9.80;;;7.23;;
3627;SDS011;1830;49.000;12.074;2022-10-15T00:49:38;11.67;;;7.27;;
3627;SDS011;1830;49.000;12.074;2022-10-15T00:52:09;12.53;;;6.93;;
3627;SDS011;1830;49.000;12.074;2022-10-15T00:54:39;14.20;;;8.33;;
3627;SDS011;1830;49.000;12.074;2022-10-15T00:57:08;9.40;;;7.80;;
3627;SDS011;1830;49.000;12.074;2022-10-15T00:59:37;13.77;;;7.57;;
3627;SDS011;1830;49.000;12.074;2022-10-15T01:02:09;12.37;;;7.90;;
3627;SDS011;1830;49.000;12.074;2022-10-15T01:04:37;9.63;;;7.37;;
3627;SDS011;1830;49.000;12.074;2022-10-15T01:07:05;11.77;;;8.33;;
3627;SDS011;1830;49.000;12.074;2022-10-15T01:09:33;10.70;;;8.23;;
3627;SDS011;1830;49.000;12.074;2022-10-15T01:12:00;10.17;;;7.67;;
3627;SDS011;1830;49.000;12.074;2022-10-15T01:14:35;14.00;;;8.00;;
3627;SDS011;1830;49.000;12.074;2022-10-15T01:17:10;10.60;;;7.20;;
3627;SDS011;1830;49.000;12.074;2022-10-15T01:19:48;11.63;;;6.90;;
3627;SDS011;1830;49.000;12.074;2022-10-15T01:22:45;9.93;;;6.50;;
3627;SDS011;1830;49.000;12.074;2022-10-15T01:25:27;11.80;;;7.30;;
3627;SDS011;1830;49.000;12.074;2022-10-15T01:28:01;16.53;;;8.07;;
3627;SDS011;1830;49.000;12.074;2022-10-15T01:30:43;11.20;;;7.80;;
3627;SDS011;1830;49.000;12.074;2022-10-15T01:33:15;10.97;;;7.37;;
3627;SDS011;1830;49.000;12.074;2022-10-15T01:35:51;15.23;;;8.40;;
3627;SDS011;1830;49.000;12.074;2022-10-15T01:38:29;14.30;;;8.13;;
3627;SDS011;1830;49.000;12.074;2022-10-15T01:41:03;13.93;;;9.07;;
3627;SDS011;1830;49.000;12.074;2022-10-15T01:43:36;11.77;;;8.27;;
3627;SDS011;1830;49.000;12.074;2022-10-15T01:46:11;17.83;;;8.20;;
3627;SDS011;1830;49.000;12.074;2022-10-15T01:48:44;13.57;;;7.80;;
3627;SDS011;1830;49.000;12.074;2022-10-15T01:51:11;12.93;;;8.10;;
3627;SDS011;1830;49.000;12.074;2022-10-15T01:53:41;12.87;;;8.40;;
3627;SDS011;1830;49.000;12.074;2022-10-15T01:56:10;8.80;;;7.00;;
3627;SDS011;1830;49.000;12.074;2022-10-15T01:58:41;12.10;;;7.17;;
3627;SDS011;1830;49.000;12.074;2022-10-15T02:01:11;15.93;;;6.30;;
3627;SDS011;1830;49.000;12.074;2022-10-15T02:03:44;8.93;;;6.60;;
3627;SDS011;1830;49.000;12.074;2022-10-15T02:06:12;8.73;;;5.90;;
3627;SDS011;1830;49.000;12.074;2022-10-15T02:08:47;8.57;;;5.60;;
3627;SDS011;1830;49.000;12.074;2022-10-15T02:11:43;7.00;;;4.83;;
3627;SDS011;1830;49.000;12.074;2022-10-15T02:14:20;5.70;;;4.50;;
3627;SDS011;1830;49.000;12.074;2022-10-15T02:16:56;12.50;;;4.50;;
3627;SDS011;1830;49.000;12.074;2022-10-15T02:19:29;4.83;;;3.80;;
3627;SDS011;1830;49.000;12.074;2022-10-15T02:22:05;6.33;;;3.80;;
3627;SDS011;1830;49.000;12.074;2022-10-15T02:24:35;5.00;;;3.67;;
3627;SDS011;1830;49.000;12.074;2022-10-15T02:27:05;8.10;;;3.53;;
3627;SDS011;1830;49.000;12.074;2022-10-15T02:29:34;3.40;;;3.03;;
3627;SDS011;1830;49.000;12.074;2022-10-15T02:32:05;4.90;;;2.83;;
3627;SDS011;1830;49.000;12.074;2022-10-15T02:34:34;6.13;;;2.93;;
3627;SDS011;1830;49.000;12.074;2022-10-15T02:37:02;3.07;;;2.77;;
3627;SDS011;1830;49.000;12.074;2022-10-15T02:39:30;6.37;;;3.47;;
3627;SDS011;1830;49.000;12.074;2022-10-15T02:41:58;12.33;;;2.80;;
3627;SDS011;1830;49.000;12.074;2022-10-15T02:44:26;2.40;;;2.20;;
3627;SDS011;1830;49.000;12.074;2022-10-15T02:46:52;4.07;;;2.90;;
3627;SDS011;1830;49.000;12.074;2022-10-15T02:49:21;8.93;;;2.80;;
3627;SDS011;1830;49.000;12.074;2022-10-15T02:51:47;9.33;;;2.70;;
3627;SDS011;1830;49.000;12.074;2022-10-15T02:54:14;4.30;;;2.57;;
3627;SDS011;1830;49.000;12.074;2022-10-15T02:56:41;7.03;;;2.73;;
3627;SDS011;1830;49.000;12.074;2022-10-15T02:59:08;2.60;;;2.40;;
3627;SDS011;1830;49.000;12.074;2022-10-15T03:01:35;7.80;;;2.63;;
3627;SDS011;1830;49.000;12.074;2022-10-15T03:04:02;9.10;;;2.70;;
3627;SDS011;1830;49.000;12.074;2022-10-15T03:06:31;4.20;;;2.30;;
3627;SDS011;1830;49.000;12.074;2022-10-15T03:08:57;6.30;;;2.60;;
3627;SDS011;1830;49.000;12.074;2022-10-15T03:11:24;16.23;;;2.50;;
3627;SDS011;1830;49.000;12.074;2022-10-15T03:13:51;4.53;;;2.40;;
3627;SDS011;1830;49.000;12.074;2022-10-15T03:16:18;5.50;;;2.50;;
3627;SDS011;1830;49.000;12.074;2022-10-15T03:18:45;2.60;;;2.07;;
3627;SDS011;1830;49.000;12.074;2022-10-15T03:21:12;7.57;;;2.63;;
3627;SDS011;1830;49.000;12.074;2022-10-15T03:23:40;2.80;;;2.00;;
3627;SDS011;1830;49.000;12.074;2022-10-15T03:26:07;4.43;;;1.67;;
3627;SDS011;1830;49.000;12.074;2022-10-15T03:28:33;5.93;;;2.37;;
3627;SDS011;1830;49.000;12.074;2022-10-15T03:31:00;5.60;;;3.27;;
3627;SDS011;1830;49.000;12.074;2022-10-15T03:33:27;2.80;;;2.17;;
3627;SDS011;1830;49.000;12.074;2022-10-15T03:35:54;4.63;;;2.03;;
3627;SDS011;1830;49.000;12.074;2022-10-15T03:38:21;6.03;;;2.20;;
3627;SDS011;1830;49.000;12.074;2022-10-15T03:40:49;7.00;;;2.20;;
3627;SDS011;1830;49.000;12.074;2022-10-15T03:43:16;6.10;;;2.10;;
3627;SDS011;1830;49.000;12.074;2022-10-15T03:45:43;2.70;;;2.00;;
3627;SDS011;1830;49.000;12.074;2022-10-15T03:48:09;4.77;;;1.73;;
3627;SDS011;1830;49.000;12.074;2022-10-15T03:50:36;5.67;;;2.63;;
3627;SDS011;1830;49.000;12.074;2022-10-15T03:53:03;3.90;;;1.90;;
3627;SDS011;1830;49.000;12.074;2022-10-15T03:55:30;2.10;;;1.83;;
3627;SDS011;1830;49.000;12.074;2022-10-15T03:57:58;3.03;;;1.83;;
3627;SDS011;1830;49.000;12.074;2022-10-15T04:00:25;3.77;;;2.47;;
3627;SDS011;1830;49.000;12.074;2022-10-15T04:02:52;4.50;;;2.10;;
3627;SDS011;1830;49.000;12.074;2022-10-15T04:05:19;1.90;;;1.80;;
3627;SDS011;1830;49.000;12.074;2022-10-15T04:07:46;2.90;;;2.27;;
3627;SDS011;1830;49.000;12.074;2022-10-15T04:10:13;8.80;;;1.77;;
3627;SDS011;1830;49.000;12.074;2022-10-15T04:12:40;4.00;;;2.27;;
3627;SDS011;1830;49.000;12.074;2022-10-15T04:15:08;3.63;;;2.10;;
3627;SDS011;1830;49.000;12.074;2022-10-15T04:17:35;8.20;;;2.27;;
3627;SDS011;1830;49.000;12.074;2022-10-15T04:20:02;2.90;;;2.00;;
3627;SDS011;1830;49.000;12.074;2022-10-15T04:22:29;2.43;;;2.10;;
3627;SDS011;1830;49.000;12.074;2022-10-15T04:24:56;2.33;;;2.13;;
3627;SDS011;1830;49.000;12.074;2022-10-15T04:27:23;7.70;;;2.33;;
3627;SDS011;1830;49.000;12.074;2022-10-15T04:29:50;1.93;;;1.73;;
3627;SDS011;1830;49.000;12.074;2022-10-15T04:32:18;3.97;;;2.07;;
3627;SDS011;1830;49.000;12.074;2022-10-15T04:34:45;3.93;;;2.20;;
3627;SDS011;1830;49.000;12.074;2022-10-15T04:37:12;3.93;;;2.30;;
3627;SDS011;1830;49.000;12.074;2022-10-15T04:39:39;5.90;;;2.07;;
3627;SDS011;1830;49.000;12.074;2022-10-15T04:42:06;6.40;;;2.60;;
3627;SDS011;1830;49.000;12.074;2022-10-15T04:44:33;2.83;;;2.50;;
3627;SDS011;1830;49.000;12.074;2022-10-15T04:46:59;4.40;;;2.10;;
3627;SDS011;1830;49.000;12.074;2022-10-15T04:49:28;10.17;;;2.50;;
3627;SDS011;1830;49.000;12.074;2022-10-15T04:51:55;3.70;;;2.20;;
3627;SDS011;1830;49.000;12.074;2022-10-15T04:54:22;4.23;;;2.43;;
3627;SDS011;1830;49.000;12.074;2022-10-15T04:56:49;1.87;;;1.77;;
3627;SDS011;1830;49.000;12.074;2022-10-15T04:59:15;4.33;;;2.37;;
3627;SDS011;1830;49.000;12.074;2022-10-15T05:01:42;3.53;;;2.13;;
3627;SDS011;1830;49.000;12.074;2022-10-15T05:04:09;6.00;;;2.50;;
3627;SDS011;1830;49.000;12.074;2022-10-15T05:06:38;7.30;;;2.93;;
3627;SDS011;1830;49.000;12.074;2022-10-15T05:09:05;6.37;;;2.93;;
3627;SDS011;1830;49.000;12.074;2022-10-15T05:11:34;5.93;;;2.87;;
3627;SDS011;1830;49.000;12.074;2022-10-15T05:14:02;6.13;;;2.93;;
3627;SDS011;1830;49.000;12.074;2022-10-15T05:16:29;4.90;;;3.00;;
3627;SDS011;1830;49.000;12.074;2022-10-15T05:18:58;4.70;;;2.83;;
3627;SDS011;1830;49.000;12.074;2022-10-15T05:21:26;6.93;;;3.10;;
3627;SDS011;1830;49.000;12.074;2022-10-15T05:23:56;3.47;;;2.43;;
3627;SDS011;1830;49.000;12.074;2022-10-15T05:26:24;4.43;;;2.13;;
3627;SDS011;1830;49.000;12.074;2022-10-15T05:28:51;7.70;;;1.87;;
3627;SDS011;1830;49.000;12.074;2022-10-15T05:31:19;4.13;;;2.60;;
3627;SDS011;1830;49.000;12.074;2022-10-15T05:33:47;4.13;;;2.17;;
3627;SDS011;1830;49.000;12.074;2022-10-15T05:36:16;4.10;;;2.40;;
3627;SDS011;1830;49.000;12.074;2022-10-15T05:38:45;5.10;;;3.03;;
3627;SDS011;1830;49.000;12.074;2022-10-15T05:41:15;2.80;;;2.50;;
3627;SDS011;1830;49.000;12.074;2022-10-15T05:43:42;2.80;;;2.43;;
3627;SDS011;1830;49.000;12.074;2022-10-15T05:46:11;4.73;;;2.40;;
3627;SDS011;1830;49.000;12.074;2022-10-15T05:48:38;3.73;;;2.93;;
3627;SDS011;1830;49.000;12.074;2022-10-15T05:51:05;5.83;;;2.97;;
3627;SDS011;1830;49.000;12.074;2022-10-15T05:53:35;7.20;;;3.33;;
3627;SDS011;1830;49.000;12.074;2022-10-15T05:56:03;9.73;;;2.97;;
3627;SDS011;1830;49.000;12.074;2022-10-15T05:58:32;3.13;;;2.63;;
3627;SDS011;1830;49.000;12.074;2022-10-15T06:01:00;8.03;;;3.30;;
3627;SDS011;1830;49.000;12.074;2022-10-15T06:03:28;7.60;;;3.90;;
3627;SDS011;1830;49.000;12.074;2022-10-15T06:05:55;7.33;;;3.70;;
3627;SDS011;1830;49.000;12.074;2022-10-15T06:08:22;4.63;;;3.50;;
3627;SDS011;1830;49.000;12.074;2022-10-15T06:10:49;7.00;;;3.77;;
3627;SDS011;1830;49.000;12.074;2022-10-15T06:13:16;6.87;;;3.60;;
3627;SDS011;1830;49.000;12.074;2022-10-15T06:15:44;7.07;;;3.73;;
3627;SDS011;1830;49.000;12.074;2022-10-15T06:18:12;3.80;;;2.77;;
3627;SDS011;1830;49.000;12.074;2022-10-15T06:20:40;5.03;;;3.10;;
3627;SDS011;1830;49.000;12.074;2022-10-15T06:23:07;7.00;;;3.50;;
3627;SDS011;1830;49.000;12.074;2022-10-15T06:25:35;7.23;;;3.30;;
3627;SDS011;1830;49.000;12.074;2022-10-15T06:28:03;7.80;;;4.07;;
3627;SDS011;1830;49.000;12.074;2022-10-15T06:30:31;4.30;;;3.50;;
3627;SDS011;1830;49.000;12.074;2022-10-15T06:32:59;7.47;;;3.73;;
3627;SDS011;1830;49.000;12.074;2022-10-15T06:35:26;8.93;;;3.60;;
3627;SDS011;1830;49.000;12.074;2022-10-15T06:37:54;7.53;;;4.07;;
3627;SDS011;1830;49.000;12.074;2022-10-15T06:40:21;9.23;;;3.90;;
3627;SDS011;1830;49.000;12.074;2022-10-15T06:42:48;6.80;;;3.73;;
3627;SDS011;1830;49.000;12.074;2022-10-15T06:45:15;5.10;;;4.23;;
3627;SDS011;1830;49.000;12.074;2022-10-15T06:47:42;14.90;;;4.27;;
3627;SDS011;1830;49.000;12.074;2022-10-15T06:50:10;8.13;;;4.60;;
3627;SDS011;1830;49.000;12.074;2022-10-15T06:52:37;5.00;;;4.33;;
3627;SDS011;1830;49.000;12.074;2022-10-15T06:55:04;7.10;;;4.43;;
3627;SDS011;1830;49.000;12.074;2022-10-15T06:57:32;4.23;;;3.83;;
3627;SDS011;1830;49.000;12.074;2022-10-15T06:59:58;4.60;;;3.83;;
3627;SDS011;1830;49.000;12.074;2022-10-15T07:02:25;5.40;;;3.70;;
3627;SDS011;1830;49.000;12.074;2022-10-15T07:04:52;4.80;;;3.17;;
3627;SDS011;1830;49.000;12.074;2022-10-15T07:07:20;5.43;;;3.47;;
3627;SDS011;1830;49.000;12.074;2022-10-15T07:09:47;8.43;;;4.20;;
3627;SDS011;1830;49.000;12.074;2022-10-15T07:12:17;21.17;;;4.20;;
3627;SDS011;1830;49.000;12.074;2022-10-15T07:14:46;4.00;;;3.60;;
3627;SDS011;1830;49.000;12.074;2022-10-15T07:17:13;8.80;;;4.73;;
3627;SDS011;1830;49.000;12.074;2022-10-15T07:19:40;11.40;;;7.70;;
3627;SDS011;1830;49.000;12.074;2022-10-15T07:22:06;4.57;;;3.50;;
3627;SDS011;1830;49.000;12.074;2022-10-15T07:24:35;2.23;;;2.13;;
3627;SDS011;1830;49.000;12.074;2022-10-15T07:27:01;2.87;;;2.60;;
3627;SDS011;1830;49.000;12.074;2022-10-15T07:29:28;5.47;;;2.60;;
3627;SDS011;1830;49.000;12.074;2022-10-15T07:31:56;3.70;;;2.70;;
3627;SDS011;1830;49.000;12.074;2022-10-15T07:34:23;5.87;;;2.20;;
3627;SDS011;1830;49.000;12.074;2022-10-15T07:36:50;4.60;;;2.20;;
3627;SDS011;1830;49.000;12.074;2022-10-15T07:39:17;3.93;;;2.77;;
3627;SDS011;1830;49.000;12.074;2022-10-15T07:41:45;2.90;;;2.57;;
3627;SDS011;1830;49.000;12.074;2022-10-15T07:44:12;3.90;;;2.47;;
3627;SDS011;1830;49.000;12.074;2022-10-15T07:46:39;3.87;;;2.93;;
3627;SDS011;1830;49.000;12.074;2022-10-15T07:49:05;2.40;;;1.83;;
3627;SDS011;1830;49.000;12.074;2022-10-15T07:51:33;4.23;;;2.87;;
3627;SDS011;1830;49.000;12.074;2022-10-15T07:54:00;3.13;;;1.87;;
3627;SDS011;1830;49.000;12.074;2022-10-15T07:56:27;1.93;;;1.73;;
3627;SDS011;1830;49.000;12.074;2022-10-15T07:58:55;2.00;;;1.80;;
3627;SDS011;1830;49.000;12.074;2022-10-15T08:01:22;5.80;;;2.00;;
3627;SDS011;1830;49.000;12.074;2022-10-15T08:03:49;2.20;;;1.70;;
3627;SDS011;1830;49.000;12.074;2022-10-15T08:06:16;2.80;;;2.43;;
3627;SDS011;1830;49.000;12.074;2022-10-15T08:08:43;2.70;;;2.20;;
3627;SDS011;1830;49.000;12.074;2022-10-15T08:11:10;4.33;;;2.00;;
3627;SDS011;1830;49.000;12.074;2022-10-15T08:13:39;2.60;;;1.80;;
3627;SDS011;1830;49.000;12.074;2022-10-15T08:16:08;2.43;;;2.23;;
3627;SDS011;1830;49.000;12.074;2022-10-15T08:18:35;14.60;;;6.67;;
3627;SDS011;1830;49.000;12.074;2022-10-15T08:21:02;5.03;;;3.00;;
3627;SDS011;1830;49.000;12.074;2022-10-15T08:23:30;3.37;;;2.13;;
3627;SDS011;1830;49.000;12.074;2022-10-15T08:25:57;4.80;;;2.50;;
3627;SDS011;1830;49.000;12.074;2022-10-15T08:28:24;3.27;;;2.90;;
3627;SDS011;1830;49.000;12.074;2022-10-15T08:30:51;3.43;;;2.63;;
3627;SDS011;1830;49.000;12.074;2022-10-15T08:33:21;3.40;;;3.07;;
3627;SDS011;1830;49.000;12.074;2022-10-15T08:35:47;3.03;;;2.67;;
3627;SDS011;1830;49.000;12.074;2022-10-15T08:38:14;3.63;;;2.60;;
3627;SDS011;1830;49.000;12.074;2022-10-15T08:40:44;2.90;;;2.00;;
3627;SDS011;1830;49.000;12.074;2022-10-15T08:43:15;1.97;;;1.83;;
3627;SDS011;1830;49.000;12.074;2022-10-15T08:45:45;3.33;;;2.30;;
3627;SDS011;1830;49.000;12.074;2022-10-15T08:48:13;7.73;;;2.10;;
3627;SDS011;1830;49.000;12.074;2022-10-15T08:50:47;2.57;;;2.10;;
3627;SDS011;1830;49.000;12.074;2022-10-15T08:53:20;3.10;;;1.93;;
3627;SDS011;1830;49.000;12.074;2022-10-15T08:55:50;5.37;;;2.23;;
3627;SDS011;1830;49.000;12.074;2022-10-15T08:58:21;12.53;;;2.27;;
3627;SDS011;1830;49.000;12.074;2022-10-15T09:00:55;2.80;;;2.60;;
3627;SDS011;1830;49.000;12.074;2022-10-15T09:03:30;4.87;;;2.03;;
3627;SDS011;1830;49.000;12.074;2022-10-15T09:06:08;5.17;;;2.17;;
3627;SDS011;1830;49.000;12.074;2022-10-15T09:08:43;10.33;;;2.00;;
3627;SDS011;1830;49.000;12.074;2022-10-15T09:11:17;3.00;;;1.90;;
3627;SDS011;1830;49.000;12.074;2022-10-15T09:13:49;2.93;;;1.90;;
3627;SDS011;1830;49.000;12.074;2022-10-15T09:16:17;3.70;;;2.20;;
3627;SDS011;1830;49.000;12.074;2022-10-15T09:18:47;2.70;;;1.70;;
3627;SDS011;1830;49.000;12.074;2022-10-15T09:21:18;6.77;;;1.70;;
3627;SDS011;1830;49.000;12.074;2022-10-15T09:23:45;2.13;;;1.87;;
3627;SDS011;1830;49.000;12.074;2022-10-15T09:26:15;2.47;;;2.27;;
3627;SDS011;1830;49.000;12.074;2022-10-15T09:28:52;2.83;;;2.23;;
3627;SDS011;1830;49.000;12.074;2022-10-15T09:31:27;4.13;;;2.00;;
3627;SDS011;1830;49.000;12.074;2022-10-15T09:34:04;3.67;;;1.80;;
3627;SDS011;1830;49.000;12.074;2022-10-15T09:36:40;1.77;;;1.67;;
3627;SDS011;1830;49.000;12.074;2022-10-15T09:39:15;1.70;;;1.60;;
3627;SDS011;1830;49.000;12.074;2022-10-15T09:41:59;4.00;;;1.80;;
3627;SDS011;1830;49.000;12.074;2022-10-15T09:44:36;2.00;;;1.90;;
3627;SDS011;1830;49.000;12.074;2022-10-15T09:47:13;10.80;;;3.07;;
3627;SDS011;1830;49.000;12.074;2022-10-15T09:49:41;1.70;;;1.50;;
3627;SDS011;1830;49.000;12.074;2022-10-15T09:52:10;2.33;;;1.73;;
3627;SDS011;1830;49.000;12.074;2022-10-15T09:54:43;2.93;;;2.30;;
3627;SDS011;1830;49.000;12.074;2022-10-15T09:57:18;20.73;;;3.93;;
3627;SDS011;1830;49.000;12.074;2022-10-15T09:59:52;2.17;;;1.63;;
3627;SDS011;1830;49.000;12.074;2022-10-15T10:02:20;3.00;;;2.17;;
3627;SDS011;1830;49.000;12.074;2022-10-15T10:04:49;5.20;;;1.90;;
3627;SDS011;1830;49.000;12.074;2022-10-15T10:07:28;7.20;;;2.00;;
3627;SDS011;1830;49.000;12.074;2022-10-15T10:09:57;3.70;;;1.97;;
3627;SDS011;1830;49.000;12.074;2022-10-15T10:12:27;3.33;;;2.00;;
3627;SDS011;1830;49.000;12.074;2022-10-15T10:14:57;1.77;;;1.50;;
3627;SDS011;1830;49.000;12.074;2022-10-15T10:17:26;7.07;;;1.73;;
3627;SDS011;1830;49.000;12.074;2022-10-15T10:20:08;9.00;;;1.67;;
3627;SDS011;1830;49.000;12.074;2022-10-15T10:22:43;2.40;;;2.10;;
3627;SDS011;1830;49.000;12.074;2022-10-15T10:25:27;9.40;;;2.60;;
3627;SDS011;1830;49.000;12.074;2022-10-15T10:27:56;3.27;;;2.97;;
3627;SDS011;1830;49.000;12.074;2022-10-15T10:30:31;4.87;;;3.33;;
3627;SDS011;1830;49.000;12.074;2022-10-15T10:32:59;3.83;;;2.40;;
3627;SDS011;1830;49.000;12.074;2022-10-15T10:35:28;2.97;;;2.73;;
3627;SDS011;1830;49.000;12.074;2022-10-15T10:38:02;5.43;;;2.27;;
3627;SDS011;1830;49.000;12.074;2022-10-15T10:40:31;3.07;;;2.03;;
3627;SDS011;1830;49.000;12.074;2022-10-15T10:45:52;2.70;;;2.47;;
3627;SDS011;1830;49.000;12.074;2022-10-15T10:48:21;2.03;;;1.90;;
3627;SDS011;1830;49.000;12.074;2022-10-15T10:51:00;6.37;;;2.83;;
3627;SDS011;1830;49.000;12.074;2022-10-15T10:53:34;3.37;;;2.37;;
3627;SDS011;1830;49.000;12.074;2022-10-15T10:56:09;7.00;;;2.07;;
3627;SDS011;1830;49.000;12.074;2022-10-15T10:58:39;2.40;;;1.63;;
3627;SDS011;1830;49.000;12.074;2022-10-15T11:01:08;1.80;;;1.70;;
3627;SDS011;1830;49.000;12.074;2022-10-15T11:03:37;2.47;;;2.27;;
3627;SDS011;1830;49.000;12.074;2022-10-15T11:06:11;1.90;;;1.80;;
3627;SDS011;1830;49.000;12.074;2022-10-15T11:09:09;7.33;;;1.87;;
3627;SDS011;1830;49.000;12.074;2022-10-15T11:11:46;3.37;;;1.80;;
3627;SDS011;1830;49.000;12.074;2022-10-15T11:14:26;7.80;;;1.53;;
3627;SDS011;1830;49.000;12.074;2022-10-15T11:17:06;5.73;;;2.10;;
3627;SDS011;1830;49.000;12.074;2022-10-15T11:19:42;2.17;;;1.60;;
3627;SDS011;1830;49.000;12.074;2022-10-15T11:22:16;3.00;;;1.50;;
3627;SDS011;1830;49.000;12.074;2022-10-15T11:24:58;5.23;;;1.70;;
3627;SDS011;1830;49.000;12.074;2022-10-15T11:27:43;2.80;;;1.63;;
3627;SDS011;1830;49.000;12.074;2022-10-15T11:30:28;8.87;;;1.67;;
3627;SDS011;1830;49.000;12.074;2022-10-15T11:33:02;8.50;;;2.00;;
3627;SDS011;1830;49.000;12.074;2022-10-15T11:35:45;2.00;;;1.80;;
3627;SDS011;1830;49.000;12.074;2022-10-15T11:38:19;3.57;;;2.37;;
3627;SDS011;1830;49.000;12.074;2022-10-15T11:40:58;3.73;;;2.67;;
3627;SDS011;1830;49.000;12.074;2022-10-15T11:43:42;4.00;;;2.40;;
3627;SDS011;1830;49.000;12.074;2022-10-15T11:46:23;2.80;;;1.87;;
3627;SDS011;1830;49.000;12.074;2022-10-15T11:48:58;3.67;;;1.93;;
3627;SDS011;1830;49.000;12.074;2022-10-15T11:51:33;3.23;;;1.60;;
3627;SDS011;1830;49.000;12.074;2022-10-15T11:54:13;2.00;;;1.27;;
3627;SDS011;1830;49.000;12.074;2022-10-15T11:56:49;5.47;;;1.40;;
3627;SDS011;1830;49.000;12.074;2022-10-15T11:59:22;3.13;;;1.57;;
3627;SDS011;1830;49.000;12.074;2022-10-15T12:01:58;2.97;;;1.60;;
3627;SDS011;1830;49.000;12.074;2022-10-15T12:04:29;1.33;;;1.23;;
3627;SDS011;1830;49.000;12.074;2022-10-15T12:07:05;14.03;;;1.70;;
3627;SDS011;1830;49.000;12.074;2022-10-15T12:09:38;3.60;;;1.43;;
3627;SDS011;1830;49.000;12.074;2022-10-15T12:12:11;4.23;;;1.60;;
3627;SDS011;1830;49.000;12.074;2022-10-15T12:14:48;2.80;;;1.37;;
3627;SDS011;1830;49.000;12.074;2022-10-15T12:17:35;4.40;;;1.40;;
3627;SDS011;1830;49.000;12.074;2022-10-15T12:20:10;3.20;;;1.20;;
3627;SDS011;1830;49.000;12.074;2022-10-15T12:22:40;3.00;;;1.40;;
3627;SDS011;1830;49.000;12.074;2022-10-15T12:28:13;2.23;;;1.00;;
3627;SDS011;1830;49.000;12.074;2022-10-15T12:30:42;2.30;;;1.10;;
3627;SDS011;1830;49.000;12.074;2022-10-15T12:33:23;7.87;;;1.40;;
3627;SDS011;1830;49.000;12.074;2022-10-15T12:36:02;5.17;;;1.50;;
3627;SDS011;1830;49.000;12.074;2022-10-15T12:38:33;9.60;;;1.50;;
3627;SDS011;1830;49.000;12.074;2022-10-15T12:41:03;2.00;;;1.20;;
3627;SDS011;1830;49.000;12.074;2022-10-15T12:43:34;2.20;;;1.33;;
3627;SDS011;1830;49.000;12.074;2022-10-15T12:46:05;15.07;;;3.43;;
3627;SDS011;1830;49.000;12.074;2022-10-15T12:48:35;6.10;;;1.50;;
3627;SDS011;1830;49.000;12.074;2022-10-15T13:00:29;6.30;;;1.80;;
3627;SDS011;1830;49.000;12.074;2022-10-15T13:03:07;1.30;;;1.20;;
3627;SDS011;1830;49.000;12.074;2022-10-15T13:05:39;3.50;;;1.27;;
3627;SDS011;1830;49.000;12.074;2022-10-15T13:08:10;7.30;;;1.37;;
3627;SDS011;1830;49.000;12.074;2022-10-15T13:10:44;4.13;;;1.13;;
3627;SDS011;1830;49.000;12.074;2022-10-15T13:13:14;6.27;;;1.40;;
3627;SDS011;1830;49.000;12.074;2022-10-15T13:15:50;4.20;;;1.10;;
3627;SDS011;1830;49.000;12.074;2022-10-15T13:18:20;3.50;;;1.27;;
3627;SDS011;1830;49.000;12.074;2022-10-15T13:20:48;11.33;;;1.40;;
3627;SDS011;1830;49.000;12.074;2022-10-15T13:23:20;4.03;;;1.60;;
3627;SDS011;1830;49.000;12.074;2022-10-15T13:25:49;10.87;;;1.60;;
3627;SDS011;1830;49.000;12.074;2022-10-15T13:28:27;3.60;;;1.50;;
3627;SDS011;1830;49.000;12.074;2022-10-15T13:30:59;3.63;;;1.70;;
3627;SDS011;1830;49.000;12.074;2022-10-15T13:33:28;3.20;;;1.50;;
3627;SDS011;1830;49.000;12.074;2022-10-15T13:35:57;3.20;;;2.00;;
3627;SDS011;1830;49.000;12.074;2022-10-15T13:38:30;11.73;;;1.50;;
3627;SDS011;1830;49.000;12.074;2022-10-15T13:40:58;3.53;;;1.40;;
3627;SDS011;1830;49.000;12.074;2022-10-15T13:43:26;3.13;;;1.20;;
3627;SDS011;1830;49.000;12.074;2022-10-15T13:45:54;8.10;;;1.70;;
3627;SDS011;1830;49.000;12.074;2022-10-15T13:48:24;5.30;;;1.40;;
3627;SDS011;1830;49.000;12.074;2022-10-15T13:50:53;2.70;;;1.87;;
3627;SDS011;1830;49.000;12.074;2022-10-15T13:53:24;6.50;;;1.80;;
3627;SDS011;1830;49.000;12.074;2022-10-15T13:55:55;5.97;;;1.37;;
3627;SDS011;1830;49.000;12.074;2022-10-15T13:58:23;1.73;;;1.50;;
3627;SDS011;1830;49.000;12.074;2022-10-15T14:00:54;4.00;;;1.50;;
3627;SDS011;1830;49.000;12.074;2022-10-15T14:03:25;5.07;;;1.57;;
3627;SDS011;1830;49.000;12.074;2022-10-15T14:05:55;8.60;;;1.27;;
3627;SDS011;1830;49.000;12.074;2022-10-15T14:08:35;6.90;;;1.40;;
3627;SDS011;1830;49.000;12.074;2022-10-15T14:11:02;2.00;;;1.00;;
3627;SDS011;1830;49.000;12.074;2022-10-15T14:13:29;1.43;;;1.20;;
3627;SDS011;1830;49.000;12.074;2022-10-15T14:15:59;4.83;;;1.43;;
3627;SDS011;1830;49.000;12.074;2022-10-15T14:18:42;5.33;;;2.30;;
3627;SDS011;1830;49.000;12.074;2022-10-15T14:21:10;2.10;;;1.20;;
3627;SDS011;1830;49.000;12.074;2022-10-15T14:23:39;7.63;;;1.40;;
3627;SDS011;1830;49.000;12.074;2022-10-15T14:26:08;4.10;;;1.23;;
3627;SDS011;1830;49.000;12.074;2022-10-15T14:28:36;8.83;;;1.70;;
3627;SDS011;1830;49.000;12.074;2022-10-15T14:31:05;12.70;;;4.03;;
3627;SDS011;1830;49.000;12.074;2022-10-15T14:33:38;4.70;;;2.30;;
3627;SDS011;1830;49.000;12.074;2022-10-15T14:36:14;9.83;;;5.70;;
3627;SDS011;1830;49.000;12.074;2022-10-15T14:38:48;4.30;;;1.87;;
3627;SDS011;1830;49.000;12.074;2022-10-15T14:41:23;1.63;;;1.10;;
3627;SDS011;1830;49.000;12.074;2022-10-15T14:44:01;7.40;;;1.93;;
3627;SDS011;1830;49.000;12.074;2022-10-15T14:46:33;4.07;;;2.00;;
3627;SDS011;1830;49.000;12.074;2022-10-15T14:49:04;6.37;;;2.07;;
3627;SDS011;1830;49.000;12.074;2022-10-15T14:51:52;3.60;;;1.67;;
3627;SDS011;1830;49.000;12.074;2022-10-15T14:54:22;4.50;;;1.83;;
3627;SDS011;1830;49.000;12.074;2022-10-15T14:56:53;2.73;;;2.07;;
3627;SDS011;1830;49.000;12.074;2022-10-15T14:59:21;4.53;;;1.13;;
3627;SDS011;1830;49.000;12.074;2022-10-15T15:01:54;5.30;;;1.50;;
3627;SDS011;1830;49.000;12.074;2022-10-15T15:07:11;4.10;;;1.70;;
3627;SDS011;1830;49.000;12.074;2022-10-15T15:09:40;1.57;;;1.47;;
3627;SDS011;1830;49.000;12.074;2022-10-15T15:12:14;2.30;;;1.87;;
3627;SDS011;1830;49.000;12.074;2022-10-15T15:14:44;1.70;;;1.60;;
3627;SDS011;1830;49.000;12.074;2022-10-15T15:17:13;3.03;;;1.67;;
3627;SDS011;1830;49.000;12.074;2022-10-15T15:19:45;2.23;;;1.43;;
3627;SDS011;1830;49.000;12.074;2022-10-15T15:22:13;3.23;;;1.70;;
3627;SDS011;1830;49.000;12.074;2022-10-15T15:24:42;4.03;;;3.27;;
3627;SDS011;1830;49.000;12.074;2022-10-15T15:27:14;3.23;;;2.70;;
3627;SDS011;1830;49.000;12.074;2022-10-15T15:29:47;3.07;;;2.40;;
3627;SDS011;1830;49.000;12.074;2022-10-15T15:32:15;9.73;;;2.40;;
3627;SDS011;1830;49.000;12.074;2022-10-15T15:34:42;4.43;;;2.20;;
3627;SDS011;1830;49.000;12.074;2022-10-15T15:37:14;3.70;;;2.00;;
3627;SDS011;1830;49.000;12.074;2022-10-15T15:39:43;2.50;;;1.87;;
3627;SDS011;1830;49.000;12.074;2022-10-15T15:42:13;3.33;;;2.33;;